Time;durP1;ratioP1;P1;durP2;ratioP2;P2;SDS_P1;SDS_P2;PMS_P1;PMS_P2;Temp;Humidity;BMP_temperature;BMP_pressure;BME280_temperature;BME280_humidity;BME280_pressure;Samples;Min_cycle;Max_cycle;Signal;HPM_P1;HPM_P2
2022/01/28 00:01:47;;;;;;;17.77;3.17;;;4.90;99.90;;;;;;5083065;28;20115;-41
2022/01/28 00:04:15;;;;;;;15.77;3.13;;;5.00;99.90;;;;;;5091276;28;20058;-41
2022/01/28 00:06:40;;;;;;;19.40;3.17;;;4.90;99.90;;;;;;5086912;28;20424;-41
2022/01/28 00:09:06;;;;;;;21.90;4.18;;;4.90;99.90;;;;;;5080456;28;20086;-41
2022/01/28 00:11:32;;;;;;;17.33;3.28;;;5.00;99.90;;;;;;5091284;28;20478;-41
2022/01/28 00:14:13;;;;;;;19.00;4.00;;;4.90;99.90;;;;;;5085957;28;20020;-42
2022/01/28 00:20:20;;;;;;;16.50;3.92;;;4.90;99.90;;;;;;5081077;28;20031;-42
2022/01/28 00:38:50;;;;;;;20.08;3.70;;;5.00;99.90;;;;;;5082245;28;20140;-41
2022/01/28 00:41:19;;;;;;;16.52;3.10;;;5.00;99.90;;;;;;5081963;28;20146;-41
2022/01/28 00:43:44;;;;;;;21.85;4.15;;;5.00;99.90;;;;;;5090612;28;20024;-41
2022/01/28 00:46:10;;;;;;;27.65;3.92;;;5.00;99.90;;;;;;5083910;28;20451;-41
2022/01/28 00:48:36;;;;;;;20.23;5.03;;;5.00;99.90;;;;;;5081015;28;20028;-41
2022/01/28 00:51:01;;;;;;;23.52;4.53;;;5.00;99.90;;;;;;5081797;28;20473;-41
2022/01/28 00:53:27;;;;;;;26.25;3.90;;;5.00;99.90;;;;;;5084530;28;20073;-41
2022/01/28 00:55:55;;;;;;;19.30;3.47;;;5.00;99.90;;;;;;5084404;28;20024;-41
2022/01/28 00:58:21;;;;;;;20.83;3.95;;;5.00;99.90;;;;;;5081934;28;20417;-41
2022/01/28 01:00:47;;;;;;;31.30;4.85;;;5.10;99.90;;;;;;5079518;28;20048;-41
2022/01/28 01:03:13;;;;;;;30.08;4.43;;;5.00;99.90;;;;;;5079001;28;20278;-41
2022/01/28 01:05:39;;;;;;;26.88;4.72;;;5.00;99.90;;;;;;5077681;28;20029;-41
2022/01/28 01:08:05;;;;;;;18.58;4.35;;;5.00;99.90;;;;;;5087560;28;20119;-42
2022/01/28 01:10:33;;;;;;;28.48;4.57;;;5.00;99.90;;;;;;5077306;28;20112;-41
2022/01/28 01:12:59;;;;;;;26.85;4.72;;;5.00;99.90;;;;;;5080600;28;20020;-41
2022/01/28 01:15:30;;;;;;;24.65;4.07;;;5.10;99.90;;;;;;5081361;28;20082;-41
2022/01/28 01:18:05;;;;;;;32.20;4.57;;;5.00;99.90;;;;;;5085801;28;20075;-41
2022/01/28 01:20:42;;;;;;;24.58;4.85;;;5.00;99.90;;;;;;5081588;28;20012;-41
2022/01/28 01:23:24;;;;;;;33.20;4.95;;;4.90;99.90;;;;;;5088455;28;20020;-41
2022/01/28 01:25:55;;;;;;;28.48;4.97;;;4.90;99.90;;;;;;5080800;28;20028;-45
2022/01/28 01:28:23;;;;;;;20.90;4.18;;;4.90;99.90;;;;;;5073362;28;20051;-45
2022/01/28 01:30:49;;;;;;;38.38;4.85;;;4.90;99.90;;;;;;5089828;28;20047;-44
2022/01/28 01:33:17;;;;;;;16.55;4.60;;;4.90;99.90;;;;;;5081044;28;20047;-45
2022/01/28 01:35:43;;;;;;;26.55;4.60;;;4.90;99.90;;;;;;5081324;28;20020;-45
2022/01/28 01:38:10;;;;;;;28.23;4.53;;;4.90;99.90;;;;;;5088146;28;20054;-45
2022/01/28 01:40:45;;;;;;;26.75;4.38;;;4.90;99.90;;;;;;5076955;28;20021;-45
2022/01/28 01:45:56;;;;;;;32.22;5.70;;;4.90;99.90;;;;;;5083980;28;20111;-45
2022/01/28 01:53:51;;;;;;;34.47;4.93;;;4.80;99.90;;;;;;5081830;28;20085;-45
2022/01/28 01:56:19;;;;;;;26.05;3.78;;;4.80;99.90;;;;;;5080681;28;20028;-45
2022/01/28 01:58:46;;;;;;;21.85;4.93;;;4.80;99.90;;;;;;5086035;28;20444;-45
2022/01/28 02:01:11;;;;;;;20.42;4.53;;;4.80;99.90;;;;;;5076277;28;20028;-45
2022/01/28 02:03:38;;;;;;;24.38;5.07;;;4.70;99.90;;;;;;5083619;28;20073;-45
2022/01/28 02:06:04;;;;;;;28.20;4.63;;;4.80;99.90;;;;;;5089493;28;20028;-46
2022/01/28 02:08:34;;;;;;;31.98;4.25;;;4.80;99.90;;;;;;5084492;28;20016;-46
2022/01/28 02:11:00;;;;;;;18.45;4.07;;;4.80;99.90;;;;;;5079367;28;20477;-45
2022/01/28 02:13:29;;;;;;;33.90;6.55;;;4.90;99.90;;;;;;5076040;28;20037;-45
2022/01/28 02:15:57;;;;;;;26.13;4.18;;;4.80;99.90;;;;;;5084296;28;20024;-45
2022/01/28 02:18:24;;;;;;;18.63;4.43;;;4.90;99.90;;;;;;5085685;28;20022;-45
2022/01/28 02:20:53;;;;;;;27.58;4.20;;;4.90;99.90;;;;;;5078577;28;20016;-47
2022/01/28 02:23:20;;;;;;;31.42;5.30;;;4.90;99.90;;;;;;5088924;28;20432;-45
2022/01/28 02:25:46;;;;;;;25.02;4.10;;;4.90;99.90;;;;;;5077409;28;20026;-46
2022/01/28 02:28:15;;;;;;;33.00;6.70;;;4.90;99.90;;;;;;5086042;28;20219;-46
2022/01/28 02:30:41;;;;;;;32.55;5.07;;;4.90;99.90;;;;;;5081582;28;20112;-45
2022/01/28 02:33:13;;;;;;;27.13;5.57;;;4.80;99.90;;;;;;5079064;28;20108;-46
2022/01/28 02:35:41;;;;;;;58.78;5.97;;;4.70;99.90;;;;;;5089138;28;20028;-46
2022/01/28 02:38:07;;;;;;;36.60;5.43;;;4.70;99.90;;;;;;5087306;28;20016;-45
2022/01/28 02:40:33;;;;;;;27.13;4.60;;;4.60;99.90;;;;;;5076463;28;20012;-45
2022/01/28 02:45:41;;;;;;;40.53;6.13;;;4.50;99.90;;;;;;5077540;28;20078;-45
2022/01/28 02:48:14;;;;;;;26.75;4.60;;;4.50;99.90;;;;;;5086245;28;20035;-47
2022/01/28 02:50:47;;;;;;;26.60;4.63;;;4.50;99.90;;;;;;5081328;28;20036;-46
2022/01/28 02:53:22;;;;;;;30.40;5.03;;;4.50;99.90;;;;;;5092302;28;20478;-45
2022/01/28 02:55:47;;;;;;;34.05;5.55;;;4.50;99.90;;;;;;5092705;28;20035;-45
2022/01/28 02:58:22;;;;;;;26.67;4.82;;;4.50;99.90;;;;;;5092276;28;20024;-46
2022/01/28 03:00:48;;;;;;;27.25;5.07;;;4.60;99.90;;;;;;5079868;28;20013;-45
2022/01/28 03:03:18;;;;;;;29.80;4.20;;;4.60;99.90;;;;;;5092206;28;20074;-45
2022/01/28 03:05:44;;;;;;;29.27;6.00;;;4.60;99.90;;;;;;5091069;28;20030;-46
2022/01/28 03:08:10;;;;;;;27.60;4.95;;;4.60;99.90;;;;;;5082101;28;20115;-46
2022/01/28 03:10:49;;;;;;;22.17;4.18;;;4.60;99.90;;;;;;5092723;28;20070;-46
2022/01/28 03:13:32;;;;;;;29.25;4.45;;;4.60;99.90;;;;;;5079924;28;20016;-45
2022/01/28 03:16:10;;;;;;;26.83;4.40;;;4.70;99.90;;;;;;5088307;28;20035;-47
2022/01/28 03:18:48;;;;;;;27.90;4.45;;;4.70;99.90;;;;;;5082930;28;20031;-46
2022/01/28 03:21:25;;;;;;;29.67;6.03;;;4.70;99.90;;;;;;5083747;28;20020;-45
2022/01/28 03:23:52;;;;;;;22.52;4.13;;;4.80;99.90;;;;;;5089985;28;20477;-44
2022/01/28 03:26:17;;;;;;;24.58;4.47;;;4.80;99.90;;;;;;5071996;28;20070;-45
2022/01/28 03:28:43;;;;;;;24.05;4.20;;;4.80;99.90;;;;;;5071269;28;20032;-45
2022/01/28 03:31:09;;;;;;;28.70;4.78;;;4.80;99.90;;;;;;5081265;28;20115;-45
2022/01/28 03:33:34;;;;;;;23.02;4.13;;;4.80;99.90;;;;;;5077708;28;20151;-45
2022/01/28 03:36:03;;;;;;;25.83;4.75;;;4.80;99.90;;;;;;5071595;28;20024;-45
2022/01/28 03:38:28;;;;;;;32.05;5.10;;;4.80;99.90;;;;;;5077785;28;20028;-45
2022/01/28 03:40:56;;;;;;;34.20;5.55;;;4.70;99.90;;;;;;5078789;28;20024;-44
2022/01/28 03:43:22;;;;;;;22.95;5.15;;;4.70;99.90;;;;;;5084458;28;20041;-45
2022/01/28 03:45:47;;;;;;;24.60;4.00;;;4.70;99.90;;;;;;5091806;28;20024;-45
2022/01/28 03:48:13;;;;;;;24.80;4.47;;;4.60;99.90;;;;;;5081109;28;20034;-45
2022/01/28 03:50:39;;;;;;;18.38;3.40;;;4.60;99.90;;;;;;5091927;28;20550;-45
2022/01/28 03:53:06;;;;;;;21.52;3.67;;;4.60;99.90;;;;;;5091658;28;20039;-45
2022/01/28 03:55:32;;;;;;;30.77;4.25;;;4.60;99.90;;;;;;5078830;28;20055;-46
2022/01/28 03:57:58;;;;;;;27.05;3.83;;;4.60;99.90;;;;;;5088058;28;20548;-47
2022/01/28 04:00:27;;;;;;;26.02;3.80;;;4.60;99.90;;;;;;5082257;28;20092;-46
2022/01/28 04:03:04;;;;;;;32.22;4.97;;;4.60;99.90;;;;;;5082889;28;20056;-44
2022/01/28 04:13:29;;;;;;;24.63;4.00;;;4.50;99.90;;;;;;5089431;28;20027;-46
2022/01/28 04:18:22;;;;;;;21.92;3.55;;;4.40;99.90;;;;;;5086142;28;20027;-45
2022/01/28 04:20:48;;;;;;;20.65;4.35;;;4.40;99.90;;;;;;5070434;28;20035;-45
2022/01/28 04:23:14;;;;;;;23.95;5.22;;;4.40;99.90;;;;;;5072755;28;20040;-45
2022/01/28 04:25:39;;;;;;;26.27;4.68;;;4.30;99.90;;;;;;5071017;28;20021;-45
2022/01/28 04:28:05;;;;;;;20.60;3.88;;;4.30;99.90;;;;;;5066937;28;20387;-44
2022/01/28 04:30:30;;;;;;;13.30;3.30;;;4.30;99.90;;;;;;5068711;28;20100;-45
2022/01/28 04:32:56;;;;;;;16.60;3.38;;;4.30;99.90;;;;;;5064004;28;20032;-47
2022/01/28 04:35:21;;;;;;;22.05;4.13;;;4.20;99.90;;;;;;5063914;28;20367;-45
2022/01/28 04:38:39;;;;;;;17.65;2.83;;;4.20;99.90;;;;;;5062894;28;20063;-45
2022/01/28 04:40:39;;;;;;;18.70;4.10;;;4.20;99.90;;;;;;5070143;28;20169;-45
2022/01/28 04:43:13;;;;;;;27.33;3.55;;;4.20;99.90;;;;;;5078885;28;20115;-46
2022/01/28 04:45:53;;;;;;;20.45;3.17;;;4.20;99.90;;;;;;5070582;28;20364;-48
2022/01/28 04:59:04;;;;;;;25.00;3.45;;;4.10;99.90;;;;;;5070216;28;20486;-44
2022/01/28 05:01:55;;;;;;;16.98;3.35;;;4.20;99.90;;;;;;5076020;28;20061;-45
2022/01/28 05:04:41;;;;;;;20.88;3.42;;;4.20;99.90;;;;;;5050266;28;20487;-45
2022/01/28 05:10:03;;;;;;;31.60;5.07;;;4.20;99.90;;;;;;5079376;28;21671;-45
2022/01/28 05:13:01;;;;;;;16.08;3.90;;;4.20;99.90;;;;;;5080337;28;20050;-45
2022/01/28 05:28:48;;;;;;;18.42;3.45;;;4.00;99.90;;;;;;5070281;28;20086;-45
2022/01/28 05:31:18;;;;;;;17.00;3.28;;;4.00;99.90;;;;;;5077958;28;20020;-44
2022/01/28 05:33:46;;;;;;;25.65;3.65;;;4.00;99.90;;;;;;5081067;28;20036;-46
2022/01/28 05:36:12;;;;;;;17.88;3.63;;;4.00;99.90;;;;;;5080151;28;20029;-45
2022/01/28 05:38:37;;;;;;;17.02;4.13;;;4.00;99.90;;;;;;5073968;28;20368;-45
2022/01/28 05:41:03;;;;;;;21.65;5.45;;;4.00;99.90;;;;;;5071709;28;20032;-44
2022/01/28 05:43:28;;;;;;;26.75;5.00;;;4.00;99.90;;;;;;5082575;28;20016;-45
2022/01/28 05:45:54;;;;;;;26.92;5.60;;;4.00;99.90;;;;;;5078772;28;20020;-47
2022/01/28 05:48:21;;;;;;;19.85;4.90;;;3.90;99.90;;;;;;5086260;28;20028;-45
2022/01/28 05:50:47;;;;;;;16.67;4.00;;;3.90;99.90;;;;;;5075498;28;20039;-45
2022/01/28 05:53:12;;;;;;;29.80;4.75;;;3.90;99.90;;;;;;5067530;28;20406;-44
2022/01/28 05:55:38;;;;;;;36.20;5.70;;;3.90;99.90;;;;;;5060511;28;20029;-45
2022/01/28 05:58:03;;;;;;;31.65;5.15;;;3.90;99.90;;;;;;5060511;28;20024;-45
2022/01/28 06:00:29;;;;;;;30.23;4.15;;;4.00;99.90;;;;;;5061089;28;20052;-45
2022/01/28 06:02:54;;;;;;;26.00;4.45;;;4.00;99.90;;;;;;5066169;28;20029;-44
2022/01/28 06:05:20;;;;;;;28.73;5.07;;;4.00;99.90;;;;;;5072435;28;20324;-44
2022/01/28 06:07:45;;;;;;;21.70;4.40;;;4.00;99.90;;;;;;5067731;28;20037;-44
2022/01/28 06:10:14;;;;;;;24.20;4.65;;;4.10;99.90;;;;;;5066071;28;20020;-45
2022/01/28 06:12:45;;;;;;;32.08;4.75;;;4.10;99.90;;;;;;5069338;28;20481;-44
2022/01/28 06:15:11;;;;;;;25.88;4.10;;;4.10;99.90;;;;;;5059358;28;20024;-45
2022/01/28 06:17:37;;;;;;;24.17;4.53;;;4.10;99.90;;;;;;5057413;28;20132;-44
2022/01/28 06:20:04;;;;;;;37.60;5.70;;;4.20;99.90;;;;;;5061806;28;20099;-44
2022/01/28 06:22:30;;;;;;;52.25;6.38;;;4.10;99.90;;;;;;5065640;28;20024;-45
2022/01/28 06:24:56;;;;;;;29.10;5.15;;;4.20;99.90;;;;;;5065966;28;20103;-45
2022/01/28 06:27:22;;;;;;;26.45;4.65;;;4.20;99.90;;;;;;5067490;28;20028;-45
2022/01/28 06:29:49;;;;;;;25.95;4.22;;;4.20;99.90;;;;;;5065103;28;20064;-44
2022/01/28 06:32:14;;;;;;;20.83;4.13;;;4.20;99.90;;;;;;5060695;28;20600;-45
2022/01/28 06:34:40;;;;;;;24.83;5.32;;;4.20;99.90;;;;;;5061749;28;20040;-45
2022/01/28 06:37:05;;;;;;;21.30;4.13;;;4.10;99.90;;;;;;5064388;28;20009;-44
2022/01/28 06:39:32;;;;;;;23.02;5.22;;;4.20;99.90;;;;;;5065561;28;20020;-45
2022/01/28 06:41:59;;;;;;;22.65;3.65;;;4.20;99.90;;;;;;5062278;28;20471;-44
2022/01/28 06:44:25;;;;;;;19.90;3.70;;;4.20;99.90;;;;;;5063149;28;20063;-44
2022/01/28 06:46:51;;;;;;;27.63;4.22;;;4.10;99.90;;;;;;5059020;28;20016;-44
2022/01/28 06:49:17;;;;;;;18.33;4.07;;;4.10;99.90;;;;;;5066667;28;20040;-44
2022/01/28 06:51:42;;;;;;;20.85;4.70;;;4.10;99.90;;;;;;5063774;28;20542;-45
2022/01/28 06:54:08;;;;;;;23.40;4.63;;;4.10;99.90;;;;;;5082076;28;20308;-44
2022/01/28 06:56:33;;;;;;;28.00;4.28;;;4.00;99.90;;;;;;5073153;28;20055;-45
2022/01/28 06:58:59;;;;;;;29.38;4.05;;;3.90;99.90;;;;;;5077295;28;20024;-45
2022/01/28 07:01:25;;;;;;;24.13;3.50;;;3.90;99.90;;;;;;5075248;28;20013;-45
2022/01/28 07:03:50;;;;;;;21.58;3.97;;;3.80;99.90;;;;;;5080042;28;20032;-46
2022/01/28 07:06:16;;;;;;;17.95;3.60;;;3.80;99.90;;;;;;5086993;28;20058;-46
2022/01/28 07:08:42;;;;;;;21.58;5.22;;;3.80;99.90;;;;;;5077500;28;20021;-45
2022/01/28 07:11:07;;;;;;;25.48;5.88;;;3.80;99.90;;;;;;5076108;28;20028;-45
2022/01/28 07:13:33;;;;;;;25.77;3.55;;;3.80;99.90;;;;;;5074436;28;20481;-45
2022/01/28 07:15:58;;;;;;;20.77;3.60;;;3.80;99.90;;;;;;5079705;28;20232;-45
2022/01/28 07:18:24;;;;;;;27.35;5.28;;;3.80;99.90;;;;;;5075642;28;20020;-45
2022/01/28 07:20:50;;;;;;;35.25;4.10;;;3.90;99.90;;;;;;5074083;28;20017;-44
2022/01/28 07:23:15;;;;;;;20.67;4.55;;;3.90;99.90;;;;;;5078597;28;20028;-45
2022/01/28 07:25:41;;;;;;;24.70;4.05;;;4.00;99.90;;;;;;5079442;28;20470;-45
2022/01/28 07:28:06;;;;;;;21.63;4.78;;;4.00;99.90;;;;;;5076395;28;20091;-45
2022/01/28 07:30:32;;;;;;;21.08;3.97;;;4.00;99.90;;;;;;5079612;28;20108;-45
2022/01/28 07:33:00;;;;;;;33.22;4.70;;;4.00;99.90;;;;;;5088353;28;20403;-45
2022/01/28 07:35:26;;;;;;;23.05;3.97;;;3.90;99.90;;;;;;5073851;28;20031;-45
2022/01/28 07:37:52;;;;;;;33.45;4.60;;;3.90;99.90;;;;;;5069630;28;20462;-45
2022/01/28 07:40:17;;;;;;;26.50;5.50;;;3.90;99.90;;;;;;5063619;28;20027;-44
2022/01/28 07:42:43;;;;;;;17.48;3.65;;;3.90;99.90;;;;;;5065057;28;20032;-45
2022/01/28 07:45:10;;;;;;;27.33;4.55;;;3.80;99.90;;;;;;5069443;28;20032;-45
2022/01/28 07:47:36;;;;;;;28.00;4.15;;;3.80;99.90;;;;;;5063399;28;20507;-45
2022/01/28 07:50:06;;;;;;;20.63;3.90;;;3.80;99.90;;;;;;5064687;28;20036;-45
2022/01/28 07:52:31;;;;;;;19.30;3.65;;;3.80;99.90;;;;;;5089429;28;20024;-45
2022/01/28 07:54:57;;;;;;;21.70;3.92;;;3.80;99.90;;;;;;5084532;28;20218;-45
2022/01/28 07:57:22;;;;;;;29.63;4.97;;;3.80;99.90;;;;;;5075923;28;20028;-47
2022/01/28 07:59:48;;;;;;;24.20;4.40;;;3.80;99.90;;;;;;5071043;28;20075;-45
2022/01/28 08:02:13;;;;;;;22.38;4.43;;;3.80;99.90;;;;;;5089661;28;20558;-45
2022/01/28 08:04:39;;;;;;;24.77;4.90;;;3.80;99.90;;;;;;5079638;28;20047;-45
2022/01/28 08:07:05;;;;;;;35.22;4.65;;;3.90;99.90;;;;;;5082280;28;20537;-45
2022/01/28 08:09:31;;;;;;;28.35;4.78;;;3.90;99.90;;;;;;5084777;28;20487;-46
2022/01/28 08:11:57;;;;;;;18.83;4.28;;;3.90;99.90;;;;;;5081520;28;20059;-45
2022/01/28 08:14:22;;;;;;;26.48;5.70;;;3.90;99.90;;;;;;5088947;28;20587;-47
2022/01/28 08:16:48;;;;;;;21.30;4.55;;;4.00;99.90;;;;;;5087235;28;20095;-45
2022/01/28 08:19:13;;;;;;;23.63;5.10;;;4.00;99.90;;;;;;5081473;28;20107;-45
2022/01/28 08:21:39;;;;;;;36.33;5.97;;;4.00;99.90;;;;;;5088539;28;20027;-45
2022/01/28 08:24:05;;;;;;;26.30;4.70;;;4.00;99.90;;;;;;5078573;28;20074;-47
2022/01/28 08:26:31;;;;;;;29.20;5.68;;;4.10;99.90;;;;;;5072443;28;20028;-45
2022/01/28 08:28:56;;;;;;;29.77;4.47;;;4.10;99.90;;;;;;5079513;28;20051;-45
2022/01/28 08:31:22;;;;;;;27.48;5.25;;;4.10;99.90;;;;;;5082728;28;20178;-45
2022/01/28 08:33:47;;;;;;;39.35;4.68;;;4.20;99.90;;;;;;5084182;28;20023;-45
2022/01/28 08:36:13;;;;;;;25.02;5.25;;;4.20;99.90;;;;;;5080302;28;20035;-45
2022/01/28 08:38:44;;;;;;;27.45;5.63;;;4.20;99.90;;;;;;5084034;28;20111;-45
2022/01/28 08:41:12;;;;;;;26.05;5.05;;;4.20;99.90;;;;;;5080508;28;20032;-45
2022/01/28 08:43:39;;;;;;;32.58;4.95;;;4.20;99.90;;;;;;5085376;28;20459;-45
2022/01/28 08:46:04;;;;;;;31.70;5.78;;;4.30;99.90;;;;;;5079739;28;20397;-45
2022/01/28 08:48:30;;;;;;;31.58;5.35;;;4.40;99.90;;;;;;5089284;28;20042;-45
2022/01/28 08:50:56;;;;;;;31.67;6.78;;;4.50;99.90;;;;;;5083158;28;20105;-45
2022/01/28 08:53:21;;;;;;;34.70;5.15;;;4.50;99.90;;;;;;5081504;28;20066;-45
2022/01/28 08:55:47;;;;;;;32.78;5.30;;;4.50;99.90;;;;;;5086485;28;20335;-45
2022/01/28 08:58:13;;;;;;;35.15;5.30;;;4.50;99.90;;;;;;5079740;28;20077;-48
2022/01/28 09:00:39;;;;;;;20.67;4.45;;;4.50;99.90;;;;;;5080121;28;20028;-45
2022/01/28 09:03:05;;;;;;;26.00;4.97;;;4.60;99.90;;;;;;5086909;28;20020;-46
2022/01/28 09:05:33;;;;;;;26.20;5.72;;;4.60;99.90;;;;;;5057652;28;20383;-45
2022/01/28 09:08:01;;;;;;;37.90;5.60;;;4.60;99.90;;;;;;5078456;28;20028;-46
2022/01/28 09:10:30;;;;;;;22.38;5.13;;;4.70;99.90;;;;;;5086877;28;20028;-45
2022/01/28 09:15:35;;;;;;;29.17;6.95;;;4.70;99.90;;;;;;5073835;28;20141;-46
2022/01/28 09:18:01;;;;;;;29.33;5.22;;;4.80;99.90;;;;;;5080638;28;20031;-45
2022/01/28 09:20:28;;;;;;;32.47;6.72;;;4.90;99.90;;;;;;5086671;28;20370;-45
2022/01/28 09:22:54;;;;;;;28.15;5.03;;;5.00;99.90;;;;;;5076725;28;20115;-45
2022/01/28 09:25:19;;;;;;;27.13;5.20;;;5.10;99.90;;;;;;5075565;28;20107;-46
2022/01/28 09:27:45;;;;;;;32.65;4.82;;;5.20;99.90;;;;;;5071501;28;20392;-45
2022/01/28 09:30:10;;;;;;;27.10;5.18;;;5.20;99.90;;;;;;5069507;28;20029;-45
2022/01/28 09:32:36;;;;;;;27.33;5.20;;;5.30;99.90;;;;;;5079350;28;20036;-45
2022/01/28 09:35:02;;;;;;;43.10;6.05;;;5.40;99.90;;;;;;5087362;28;20023;-46
2022/01/28 09:37:28;;;;;;;25.02;4.65;;;5.40;99.90;;;;;;5086859;28;20420;-45
2022/01/28 09:39:54;;;;;;;38.35;5.28;;;5.60;99.90;;;;;;5079939;28;20381;-45
2022/01/28 09:42:23;;;;;;;25.95;5.60;;;5.80;99.90;;;;;;5069810;28;20026;-48
2022/01/28 09:44:49;;;;;;;29.63;6.07;;;6.00;99.90;;;;;;5079197;28;20063;-45
2022/01/28 09:47:15;;;;;;;20.60;5.00;;;6.00;99.90;;;;;;5083088;28;20030;-45
2022/01/28 09:49:41;;;;;;;35.80;6.65;;;6.00;99.90;;;;;;5078897;28;20039;-45
2022/01/28 09:52:09;;;;;;;32.33;5.57;;;6.00;99.90;;;;;;5088263;28;20036;-46
2022/01/28 09:54:36;;;;;;;23.08;5.38;;;5.90;99.90;;;;;;5074171;28;20036;-45
2022/01/28 09:57:06;;;;;;;29.63;5.68;;;5.90;99.90;;;;;;5074498;28;20044;-45
2022/01/28 09:59:32;;;;;;;31.35;5.68;;;5.80;99.90;;;;;;5078613;28;20170;-47
2022/01/28 10:01:58;;;;;;;28.55;6.07;;;5.90;99.90;;;;;;5076415;28;20029;-47
2022/01/28 10:04:24;;;;;;;30.48;6.07;;;5.90;99.90;;;;;;5087346;28;20082;-45
2022/01/28 10:06:50;;;;;;;26.92;5.63;;;6.00;99.90;;;;;;5087947;28;20024;-45
2022/01/28 10:09:19;;;;;;;26.42;5.30;;;6.10;99.90;;;;;;5077450;28;20020;-46
2022/01/28 10:11:49;;;;;;;28.13;5.03;;;6.20;99.90;;;;;;5073970;28;20044;-45
2022/01/28 10:14:23;;;;;;;23.40;4.15;;;6.20;99.90;;;;;;5078486;28;20013;-45
2022/01/28 10:17:00;;;;;;;32.58;5.97;;;6.30;99.90;;;;;;5065681;28;20028;-45
2022/01/28 10:19:36;;;;;;;26.50;5.18;;;6.50;99.90;;;;;;5072824;28;20238;-46
2022/01/28 10:22:01;;;;;;;27.58;6.03;;;6.50;99.90;;;;;;5080141;28;20017;-45
2022/01/28 10:24:28;;;;;;;30.63;5.97;;;6.40;99.90;;;;;;5072914;28;20040;-46
2022/01/28 10:27:08;;;;;;;33.45;5.10;;;6.60;99.90;;;;;;5055885;28;20024;-45
2022/01/28 10:29:39;;;;;;;25.77;5.03;;;6.90;99.90;;;;;;5074848;28;20099;-48
2022/01/28 10:32:09;;;;;;;31.60;5.50;;;8.00;99.90;;;;;;5085473;28;20024;-48
2022/01/28 10:34:36;;;;;;;25.95;4.45;;;9.10;99.90;;;;;;5086625;28;20500;-45
2022/01/28 10:37:17;;;;;;;27.40;6.22;;;9.20;99.90;;;;;;5083405;28;20085;-46
2022/01/28 10:39:52;;;;;;;21.67;4.43;;;9.80;99.90;;;;;;5082802;28;20024;-45
2022/01/28 10:42:38;;;;;;;28.17;4.22;;;10.40;96.50;;;;;;5073376;28;20030;-46
2022/01/28 10:45:10;;;;;;;16.30;4.10;;;11.60;94.60;;;;;;5065471;28;20037;-46
2022/01/28 10:47:45;;;;;;;15.10;3.30;;;12.30;91.70;;;;;;5071336;28;20038;-47
2022/01/28 10:50:33;;;;;;;17.95;5.00;;;12.70;86.80;;;;;;5073007;28;20189;-46
2022/01/28 10:53:17;;;;;;;19.35;4.88;;;13.40;81.70;;;;;;5069363;28;20465;-47
2022/01/28 10:55:50;;;;;;;20.98;5.00;;;13.50;82.70;;;;;;5073032;28;20395;-46
2022/01/28 10:58:27;;;;;;;24.55;5.22;;;13.90;79.60;;;;;;5077472;28;20448;-46
2022/01/28 11:00:57;;;;;;;19.55;4.60;;;14.10;76.80;;;;;;5075885;28;20449;-45
2022/01/28 11:03:26;;;;;;;24.33;4.63;;;14.30;75.00;;;;;;5080655;28;20122;-46
2022/01/28 11:05:59;;;;;;;20.42;4.80;;;14.30;73.70;;;;;;5077703;28;20016;-46
2022/01/28 11:08:34;;;;;;;14.60;4.20;;;14.60;71.00;;;;;;5071529;28;20024;-46
2022/01/28 11:11:01;;;;;;;16.05;4.18;;;15.50;67.70;;;;;;5079355;28;20550;-48
2022/01/28 11:13:27;;;;;;;15.82;4.15;;;15.80;65.70;;;;;;5082009;28;20024;-46
2022/01/28 11:15:54;;;;;;;18.77;4.53;;;15.70;65.80;;;;;;5089408;28;20028;-46
2022/01/28 11:18:20;;;;;;;16.00;4.65;;;16.20;64.90;;;;;;5081734;28;20644;-46
2022/01/28 11:20:49;;;;;;;15.13;4.65;;;16.90;61.70;;;;;;5083786;28;20548;-46
2022/01/28 11:23:23;;;;;;;15.77;3.88;;;16.10;65.40;;;;;;5081846;28;20043;-46
2022/01/28 11:26:14;;;;;;;19.05;3.88;;;16.00;61.50;;;;;;5077195;28;20025;-45
2022/01/28 11:28:51;;;;;;;16.30;4.53;;;15.90;62.90;;;;;;5069378;28;20401;-46
2022/01/28 11:31:39;;;;;;;13.90;4.30;;;15.00;65.20;;;;;;5080984;28;20036;-46
2022/01/28 11:34:15;;;;;;;19.25;4.25;;;15.40;64.00;;;;;;5088146;28;20024;-45
2022/01/28 11:36:41;;;;;;;15.48;3.85;;;15.70;62.90;;;;;;5078238;28;20024;-45
2022/01/28 11:39:21;;;;;;;21.17;4.93;;;15.70;61.10;;;;;;5087941;28;20393;-46
2022/01/28 11:42:10;;;;;;;19.85;5.47;;;15.00;61.90;;;;;;5075372;28;20121;-46
2022/01/28 11:44:42;;;;;;;9.85;4.00;;;14.80;64.50;;;;;;5071746;28;20052;-48
2022/01/28 11:47:19;;;;;;;19.85;4.80;;;15.10;63.90;;;;;;5078618;28;20058;-45
2022/01/28 11:50:08;;;;;;;18.52;4.57;;;14.60;62.90;;;;;;5089723;28;20124;-46
2022/01/28 11:52:46;;;;;;;16.17;4.25;;;13.90;65.30;;;;;;5082489;28;20119;-45
2022/01/28 11:55:14;;;;;;;18.02;4.78;;;14.20;65.70;;;;;;5079484;28;20058;-45
2022/01/28 11:57:52;;;;;;;20.65;3.90;;;14.20;63.00;;;;;;5082117;28;20127;-46
2022/01/28 12:00:20;;;;;;;26.58;5.20;;;14.20;66.50;;;;;;5079854;28;20490;-45
2022/01/28 12:02:48;;;;;;;24.08;6.18;;;13.40;65.50;;;;;;5079944;28;20099;-46
2022/01/28 12:05:36;;;;;;;15.35;4.75;;;13.50;66.30;;;;;;5081924;28;20034;-46
2022/01/28 12:08:04;;;;;;;19.23;4.80;;;14.00;66.90;;;;;;5079418;28;20494;-46
2022/01/28 12:10:32;;;;;;;22.23;5.10;;;14.70;65.10;;;;;;5081126;28;20038;-45
2022/01/28 12:13:00;;;;;;;18.67;4.60;;;14.60;64.90;;;;;;5081520;28;20020;-45
2022/01/28 12:15:31;;;;;;;17.27;5.07;;;14.80;65.40;;;;;;5078529;28;20408;-45
2022/01/28 12:18:04;;;;;;;18.30;4.93;;;15.10;64.20;;;;;;5075539;28;20027;-45
2022/01/28 12:20:38;;;;;;;18.88;4.97;;;15.40;63.70;;;;;;5079384;28;20546;-46
2022/01/28 12:23:25;;;;;;;21.67;5.03;;;15.60;61.70;;;;;;5081475;28;20127;-46
2022/01/28 12:25:55;;;;;;;17.33;5.10;;;15.50;61.80;;;;;;5076467;28;20102;-46
2022/01/28 12:28:21;;;;;;;;;;;15.60;62.20;;;;;;5069363;28;20078;-45
2022/01/28 12:30:49;;;;;;;21.35;5.38;;;15.00;62.50;;;;;;5073863;28;19908;-46
2022/01/28 12:33:20;;;;;;;14.82;3.63;;;15.20;63.00;;;;;;5080984;28;20036;-46
2022/01/28 12:35:49;;;;;;;18.52;4.78;;;15.20;63.50;;;;;;5089310;28;20086;-45
2022/01/28 12:38:15;;;;;;;14.95;4.57;;;14.90;62.10;;;;;;5077483;28;20009;-45
2022/01/28 12:40:48;;;;;;;16.23;3.80;;;14.60;62.40;;;;;;5084221;28;20020;-45
2022/01/28 12:43:18;;;;;;;16.63;4.15;;;14.10;64.30;;;;;;5080219;28;20119;-45
2022/01/28 12:46:07;;;;;;;21.42;5.20;;;13.20;66.40;;;;;;5084315;28;20020;-45
2022/01/28 12:48:33;;;;;;;19.38;4.50;;;12.60;67.00;;;;;;5088314;28;20074;-45
2022/01/28 12:51:01;;;;;;;18.50;5.57;;;12.00;70.00;;;;;;5078642;28;20034;-44
2022/01/28 12:53:42;;;;;;;22.63;4.50;;;11.80;70.90;;;;;;5089092;28;20453;-45
2022/01/28 12:56:09;;;;;;;22.50;4.55;;;11.90;71.00;;;;;;5079208;28;20029;-45
2022/01/28 12:58:47;;;;;;;17.40;3.72;;;11.90;69.30;;;;;;5073067;28;20038;-45
2022/01/28 13:01:15;;;;;;;13.88;4.13;;;12.10;70.50;;;;;;5066281;28;20028;-45
2022/01/28 13:03:52;;;;;;;13.07;4.25;;;12.00;69.90;;;;;;5077221;28;20508;-45
2022/01/28 13:06:24;;;;;;;15.07;3.95;;;11.50;71.30;;;;;;5049108;28;20486;-45
2022/01/28 13:08:50;;;;;;;19.65;4.82;;;11.30;71.80;;;;;;5064307;28;20048;-45
2022/01/28 13:11:15;;;;;;;17.52;4.75;;;11.00;72.90;;;;;;5073073;28;20038;-47
2022/01/28 13:13:53;;;;;;;17.15;3.90;;;10.40;75.30;;;;;;5082271;28;20028;-45
2022/01/28 13:16:30;;;;;;;17.75;3.63;;;10.10;75.30;;;;;;5078644;28;20024;-45
2022/01/28 13:18:57;;;;;;;15.93;4.50;;;9.90;76.10;;;;;;5084323;28;20138;-47
2022/01/28 13:21:23;;;;;;;17.42;4.50;;;9.70;77.60;;;;;;5087434;28;20020;-45
2022/01/28 13:23:48;;;;;;;19.90;4.70;;;9.70;78.80;;;;;;5075411;28;20025;-46
2022/01/28 13:26:14;;;;;;;20.13;4.75;;;9.50;78.80;;;;;;5087612;28;20028;-46
2022/01/28 13:28:40;;;;;;;21.27;4.18;;;9.20;79.90;;;;;;5076761;28;20024;-47
2022/01/28 13:31:06;;;;;;;20.35;4.25;;;9.20;81.00;;;;;;5075376;28;20493;-44
2022/01/28 13:33:32;;;;;;;22.80;4.32;;;9.10;82.40;;;;;;5072331;28;20020;-45
2022/01/28 13:35:59;;;;;;;17.48;3.55;;;9.10;81.80;;;;;;5079947;28;20471;-45
2022/01/28 13:38:32;;;;;;;15.40;2.83;;;8.70;82.20;;;;;;5083711;28;20021;-44
2022/01/28 13:40:58;;;;;;;25.83;4.22;;;8.50;84.50;;;;;;5076670;28;20040;-45
2022/01/28 13:43:23;;;;;;;23.48;4.18;;;8.40;87.10;;;;;;5078229;28;20024;-45
2022/01/28 13:45:54;;;;;;;20.85;3.60;;;8.40;88.50;;;;;;5087549;28;20057;-47
2022/01/28 13:48:39;;;;;;;26.63;4.32;;;8.40;88.80;;;;;;5080451;28;20021;-44
2022/01/28 13:51:06;;;;;;;14.82;3.88;;;8.50;89.30;;;;;;5085300;28;20038;-45
2022/01/28 13:56:43;;;;;;;19.98;4.35;;;8.60;87.30;;;;;;5068843;28;20546;-44
2022/01/28 13:59:23;;;;;;;15.25;3.88;;;8.50;89.30;;;;;;5078125;28;20024;-44
2022/01/28 14:01:49;;;;;;;24.15;4.63;;;8.50;89.70;;;;;;5080874;28;20059;-44
2022/01/28 14:04:27;;;;;;;19.25;4.93;;;8.40;89.70;;;;;;5074637;28;20131;-44
2022/01/28 14:07:12;;;;;;;18.65;3.72;;;8.50;90.20;;;;;;5083975;28;20028;-45
2022/01/28 14:09:50;;;;;;;17.95;3.92;;;8.40;90.30;;;;;;5063066;28;20090;-44